Observation data for Levelland on 03/11/2018      Previous  Date  Next       Current Mesonet Observations  Soil Data  Daily Summary Page  Observations in Plain Language
KLD1 110600Z 36011KT 14/M12 A2995 RMK A01 T01391123  RH  015%=      5-min Rain = 0
KLD1 110605Z 36012G18KT 14/M12 A2995 RMK A01 T01361118  RH  016%=      5-min Rain = 0
KLD1 110610Z 00015KT 14/M12 A2996 RMK A01 T01361117  RH  016%=      5-min Rain = 0
KLD1 110615Z 00015G21KT 13/M12 A2996 RMK A01 T01331115  RH  017%=      5-min Rain = 0
KLD1 110620Z 01018G24KT 13/M11 A2997 RMK A01 T01321111  RH  018%=      5-min Rain = 0
KLD1 110625Z 01021G27KT 13/M11 A2997 RMK A01 T01311105  RH  019%=      5-min Rain = 0
KLD1 110630Z 00021G26KT 13/M10 A2998 RMK A01 T01301099  RH  019%=      5-min Rain = 0
KLD1 110635Z 00023G30KT 13/M09 A2998 RMK A01 T01271088  RH  022%=      5-min Rain = 0
KLD1 110640Z 01022G28KT 13/M08 A2999 RMK A01 T01251083  RH  023%=      5-min Rain = 0
KLD1 110645Z 01022G29KT 12/M08 A2999 RMK A01 T01231081  RH  024%=      5-min Rain = 0
KLD1 110650Z 01023G29KT 12/M08 A30 RMK A01 T01221078  RH  024%=      5-min Rain = 0
KLD1 110655Z 01024G32KT 12/M08 A30 RMK A01 T01211076  RH  025%=      5-min Rain = 0
KLD1 110700Z 02026G35KT 12/M07 A2999 RMK A01 T01211073  RH  025%=      5-min Rain = 0
KLD1 110705Z 02031G42KT 12/M07 A2999 RMK A01 T01221072  RH  025%=      5-min Rain = 0
KLD1 110710Z 03033G39KT 12/M07 A2999 RMK A01 T01221071  RH  026%=      5-min Rain = 0
KLD1 110715Z 03029G39KT 12/M07 A3001 RMK A01 T01211071  RH  026%=      5-min Rain = 0
KLD1 110720Z 02025G32KT 12/M07 A3002 RMK A01 T01201072  RH  026%=      5-min Rain = 0
KLD1 110725Z 01021G29KT 12/M07 A3003 RMK A01 T01201071  RH  026%=      5-min Rain = 0
KLD1 110730Z 01023G30KT 12/M07 A3003 RMK A01 T01191070  RH  026%=      5-min Rain = 0
KLD1 110735Z 02023G32KT 12/M07 A3003 RMK A01 T01191069  RH  027%=      5-min Rain = 0
KLD1 110740Z 02025G32KT 12/M07 A3003 RMK A01 T01171069  RH  027%=      5-min Rain = 0
KLD1 110745Z 02026G33KT 12/M07 A3003 RMK A01 T01151067  RH  027%=      5-min Rain = 0
KLD1 110750Z 02026G34KT 12/M07 A3003 RMK A01 T01151066  RH  028%=      5-min Rain = 0
KLD1 110755Z 02027G36KT 12/M06 A3003 RMK A01 T01151063  RH  028%=      5-min Rain = 0
KLD1 110800Z 02026G35KT 11/M06 A3003 RMK A01 T01141062  RH  029%=      5-min Rain = 0
KLD1 110805Z 03024G33KT 11/M06 A3004 RMK A01 T01141061  RH  029%=      5-min Rain = 0
KLD1 110810Z 03024G32KT 11/M06 A3004 RMK A01 T01131059  RH  030%=      5-min Rain = 0
KLD1 110815Z 03023G29KT 11/M06 A3004 RMK A01 T01131059  RH  030%=      5-min Rain = 0
KLD1 110820Z 03025G32KT 11/M06 A3004 RMK A01 T01131058  RH  030%=      5-min Rain = 0
KLD1 110825Z 03026G32KT 11/M06 A3004 RMK A01 T01121057  RH  030%=      5-min Rain = 0
KLD1 110830Z 03026G35KT 11/M06 A3004 RMK A01 T01101057  RH  031%=      5-min Rain = 0
KLD1 110835Z 03026G33KT 11/M06 A3004 RMK A01 T01091056  RH  031%=      5-min Rain = 0
KLD1 110840Z 03024G31KT 11/M06 A3005 RMK A01 T01081055  RH  032%=      5-min Rain = 0
KLD1 110845Z 03027G35KT 11/M05 A3005 RMK A01 T01081054  RH  032%=      5-min Rain = 0
KLD1 110850Z 02027G36KT 11/M05 A3006 RMK A01 T01071054  RH  032%=      5-min Rain = 0
KLD1 110855Z 03026G33KT 11/M06 A3006 RMK A01 T01061055  RH  032%=      5-min Rain = 0
KLD1 110900Z 02022G29KT 11/M06 A3007 RMK A01 T01051055  RH  032%=      5-min Rain = 0
KLD1 110905Z 03025G35KT 11/M06 A3006 RMK A01 T01051055  RH  032%=      5-min Rain = 0
KLD1 110910Z 03028G34KT 11/M06 A3006 RMK A01 T01051055  RH  032%=      5-min Rain = 0
KLD1 110915Z 03024G35KT 10/M06 A3006 RMK A01 T01041056  RH  032%=      5-min Rain = 0
KLD1 110920Z 03021G30KT 10/M06 A3006 RMK A01 T01021056  RH  033%=      5-min Rain = 0
KLD1 110925Z 03021G28KT 10/M06 A3007 RMK A01 T01021057  RH  033%=      5-min Rain = 0
KLD1 110930Z 03022G28KT 10/M06 A3007 RMK A01 T01021057  RH  033%=      5-min Rain = 0
KLD1 110935Z 02023G30KT 10/M06 A3007 RMK A01 T01021057  RH  033%=      5-min Rain = 0
KLD1 110940Z 02023G29KT 10/M06 A3007 RMK A01 T01021058  RH  032%=      5-min Rain = 0
KLD1 110945Z 02023G29KT 10/M06 A3007 RMK A01 T01021059  RH  032%=      5-min Rain = 0
KLD1 110950Z 02021G26KT 10/M06 A3008 RMK A01 T01021060  RH  032%=      5-min Rain = 0
KLD1 110955Z 02021G27KT 10/M06 A3008 RMK A01 T01021062  RH  031%=      5-min Rain = 0
KLD1 111000Z 03022G28KT 10/M06 A3008 RMK A01 T01021064  RH  031%=      5-min Rain = 0
KLD1 111005Z 02021G26KT 10/M07 A3008 RMK A01 T01021065  RH  031%=      5-min Rain = 0
KLD1 111010Z 02021G27KT 10/M07 A3008 RMK A01 T01011066  RH  031%=      5-min Rain = 0
KLD1 111015Z 03021G29KT 10/M07 A3008 RMK A01 T01011067  RH  030%=      5-min Rain = 0
KLD1 111020Z 03021G26KT 10/M07 A3008 RMK A01 T01001068  RH  030%=      5-min Rain = 0
KLD1 111025Z 03021G27KT 10/M07 A3008 RMK A01 T01001068  RH  030%=      5-min Rain = 0
KLD1 111030Z 03021G26KT 10/M07 A3008 RMK A01 T00991068  RH  031%=      5-min Rain = 0
KLD1 111035Z 03021KT 10/M07 A3008 RMK A01 T00991069  RH  030%=      5-min Rain = 0
KLD1 111040Z 03021G26KT 10/M07 A3008 RMK A01 T00981070  RH  030%=      5-min Rain = 0
KLD1 111045Z 03019G26KT 10/M07 A3008 RMK A01 T00981070  RH  030%=      5-min Rain = 0
KLD1 111050Z 03021G28KT 10/M07 A3008 RMK A01 T00971071  RH  030%=      5-min Rain = 0
KLD1 111055Z 03021G28KT 10/M07 A3008 RMK A01 T00971071  RH  030%=      5-min Rain = 0
KLD1 111100Z 02022G29KT 10/M07 A3009 RMK A01 T00971072  RH  030%=      5-min Rain = 0
KLD1 111105Z 03022G27KT 10/M07 A3009 RMK A01 T00961072  RH  030%=      5-min Rain = 0
KLD1 111110Z 02020G27KT 10/M07 A301 RMK A01 T00961074  RH  030%=      5-min Rain = 0
KLD1 111115Z 02022G31KT 10/M07 A301 RMK A01 T00951074  RH  030%=      5-min Rain = 0
KLD1 111120Z 03023G31KT 09/M07 A301 RMK A01 T00941074  RH  030%=      5-min Rain = 0
KLD1 111125Z 03021G28KT 09/M07 A3011 RMK A01 T00931073  RH  031%=      5-min Rain = 0
KLD1 111130Z 02019G27KT 09/M07 A3011 RMK A01 T00911070  RH  032%=      5-min Rain = 0
KLD1 111135Z 02022KT 09/M07 A3011 RMK A01 T00911068  RH  032%=      5-min Rain = 0
KLD1 111140Z 02021G31KT 09/M07 A3012 RMK A01 T00901068  RH  032%=      5-min Rain = 0
KLD1 111145Z 03020G26KT 09/M07 A3012 RMK A01 T00901068  RH  033%=      5-min Rain = 0
KLD1 111150Z 02021G27KT 09/M07 A3013 RMK A01 T00891067  RH  033%=      5-min Rain = 0
KLD1 111155Z 02020G26KT 09/M07 A3013 RMK A01 T00891066  RH  033%=      5-min Rain = 0
KLD1 111200Z 02022G28KT 09/M07 A3013 RMK A01 T00881066  RH  033%=      5-min Rain = 0
KLD1 111205Z 02022G29KT 09/M07 A3013 RMK A01 T00871066  RH  034%=      5-min Rain = 0
KLD1 111210Z 02020G27KT 09/M07 A3014 RMK A01 T00861066  RH  034%=      5-min Rain = 0
KLD1 111215Z 02023G29KT 09/M07 A3014 RMK A01 T00851066  RH  034%=      5-min Rain = 0
KLD1 111220Z 02019G24KT 08/M07 A3015 RMK A01 T00841066  RH  034%=      5-min Rain = 0
KLD1 111225Z 01020G25KT 08/M07 A3015 RMK A01 T00831068  RH  034%=      5-min Rain = 0
KLD1 111230Z 02020G26KT 08/M07 A3016 RMK A01 T00811068  RH  034%=      5-min Rain = 0
KLD1 111235Z 02023G29KT 08/M07 A3016 RMK A01 T00811068  RH  034%=      5-min Rain = 0
KLD1 111240Z 03018KT 08/M07 A3017 RMK A01 T00811069  RH  034%=      5-min Rain = 0
KLD1 111245Z 02018G27KT 08/M07 A3017 RMK A01 T00801068  RH  035%=      5-min Rain = 0
KLD1 111250Z 02018G23KT 08/M07 A3017 RMK A01 T00781068  RH  035%=      5-min Rain = 0
KLD1 111255Z 02018G25KT 08/M07 A3017 RMK A01 T00771068  RH  035%=      5-min Rain = 0
KLD1 111300Z 02023G29KT 07/M07 A3017 RMK A01 T00741071  RH  035%=      5-min Rain = 0
KLD1 111305Z 02019G25KT 07/M07 A3019 RMK A01 T00731072  RH  035%=      5-min Rain = 0
KLD1 111310Z 01016G24KT 07/M07 A3019 RMK A01 T00721073  RH  035%=      5-min Rain = 0
KLD1 111315Z 02019G25KT 07/M08 A302 RMK A01 T00711076  RH  035%=      5-min Rain = 0
KLD1 111320Z 01019G25KT 07/M08 A302 RMK A01 T00701079  RH  034%=      5-min Rain = 0
KLD1 111325Z 01019G26KT 07/M08 A302 RMK A01 T00681082  RH  034%=      5-min Rain = 0
KLD1 111330Z 01019G24KT 07/M08 A302 RMK A01 T00671082  RH  034%=      5-min Rain = 0
KLD1 111335Z 02019G26KT 07/M08 A302 RMK A01 T00671082  RH  034%=      5-min Rain = 0
KLD1 111340Z 01016KT 07/M08 A3021 RMK A01 T00671082  RH  034%=      5-min Rain = 0
KLD1 111345Z 01017G24KT 07/M08 A3021 RMK A01 T00671083  RH  034%=      5-min Rain = 0
KLD1 111350Z 01019G25KT 07/M08 A3021 RMK A01 T00661084  RH  034%=      5-min Rain = 0
KLD1 111355Z 01019G24KT 07/M09 A3022 RMK A01 T00661087  RH  033%=      5-min Rain = 0
KLD1 111400Z 02019G25KT 07/M09 A3022 RMK A01 T00651088  RH  033%=      5-min Rain = 0
KLD1 111405Z 02017G24KT 07/M09 A3023 RMK A01 T00651088  RH  033%=      5-min Rain = 0
KLD1 111410Z 01018G23KT 07/M09 A3023 RMK A01 T00661089  RH  032%=      5-min Rain = 0
KLD1 111415Z 01018G23KT 07/M09 A3023 RMK A01 T00661090  RH  032%=      5-min Rain = 0
KLD1 111420Z 01018KT 07/M09 A3024 RMK A01 T00651089  RH  033%=      5-min Rain = 0
KLD1 111425Z 01019KT 06/M09 A3025 RMK A01 T00641089  RH  033%=      5-min Rain = 0
KLD1 111430Z 01016KT 07/M09 A3025 RMK A01 T00651088  RH  033%=      5-min Rain = 0
KLD1 111435Z 01015G20KT 07/M09 A3025 RMK A01 T00661087  RH  033%=      5-min Rain = 0
KLD1 111440Z 01017G23KT 07/M09 A3025 RMK A01 T00661088  RH  033%=      5-min Rain = 0
KLD1 111445Z 02018G23KT 07/M09 A3025 RMK A01 T00661090  RH  032%=      5-min Rain = 0
KLD1 111450Z 02016G21KT 07/M09 A3025 RMK A01 T00671091  RH  032%=      5-min Rain = 0
KLD1 111455Z 02018G23KT 07/M09 A3025 RMK A01 T00681094  RH  031%=      5-min Rain = 0
KLD1 111500Z 03018G23KT 07/M10 A3025 RMK A01 T00681098  RH  030%=      5-min Rain = 0
KLD1 111505Z 04020KT 07/M10 A3026 RMK A01 T00681102  RH  029%=      5-min Rain = 0
KLD1 111510Z 03016G21KT 07/M10 A3026 RMK A01 T00701098  RH  029%=      5-min Rain = 0
KLD1 111515Z 02015G20KT 07/M10 A3026 RMK A01 T00721095  RH  030%=      5-min Rain = 0
KLD1 111520Z 02020G25KT 07/M10 A3026 RMK A01 T00711098  RH  029%=      5-min Rain = 0
KLD1 111525Z 03019G24KT 07/M10 A3027 RMK A01 T00701100  RH  029%=      5-min Rain = 0
KLD1 111530Z 03018G24KT 07/M10 A3027 RMK A01 T00701100  RH  029%=      5-min Rain = 0
KLD1 111535Z 02018KT 07/M10 A3027 RMK A01 T00711099  RH  029%=      5-min Rain = 0
KLD1 111540Z 02018KT 07/M10 A3028 RMK A01 T00701097  RH  030%=      5-min Rain = 0
KLD1 111545Z 03016KT 07/M10 A3028 RMK A01 T00701098  RH  030%=      5-min Rain = 0
KLD1 111550Z 02017KT 07/M09 A3028 RMK A01 T00701094  RH  030%=      5-min Rain = 0
KLD1 111555Z 02018G23KT 07/M09 A3029 RMK A01 T00721094  RH  030%=      5-min Rain = 0
KLD1 111600Z 02017G22KT 07/M09 A3029 RMK A01 T00741094  RH  029%=      5-min Rain = 0
KLD1 111605Z 02017G23KT 08/M09 A3029 RMK A01 T00751094  RH  029%=      5-min Rain = 0
KLD1 111610Z 01017KT 07/M09 A303 RMK A01 T00741092  RH  030%=      5-min Rain = 0
KLD1 111615Z 00018G23KT 07/M09 A303 RMK A01 T00711092  RH  031%=      5-min Rain = 0
KLD1 111620Z 01018G23KT 07/M09 A303 RMK A01 T00701092  RH  031%=      5-min Rain = 0
KLD1 111625Z 02017G22KT 07/M09 A303 RMK A01 T00711092  RH  031%=      5-min Rain = 0
KLD1 111630Z 02016G22KT 07/M09 A303 RMK A01 T00741091  RH  030%=      5-min Rain = 0
KLD1 111635Z 01017G23KT 08/M09 A303 RMK A01 T00761090  RH  030%=      5-min Rain = 0
KLD1 111640Z 01018G23KT 08/M09 A3031 RMK A01 T00791089  RH  030%=      5-min Rain = 0
KLD1 111645Z 02017G23KT 08/M09 A303 RMK A01 T00791090  RH  029%=      5-min Rain = 0
KLD1 111650Z 02018G23KT 08/M09 A303 RMK A01 T00781093  RH  029%=      5-min Rain = 0
KLD1 111655Z 02015G20KT 08/M09 A303 RMK A01 T00791089  RH  030%=      5-min Rain = 0
KLD1 111700Z 02016G21KT 08/M09 A303 RMK A01 T00781087  RH  030%=      5-min Rain = 0
KLD1 111705Z 02018G23KT 08/M09 A303 RMK A01 T00761091  RH  030%=      5-min Rain = 0
KLD1 111710Z 01014G19KT 08/M09 A3031 RMK A01 T00781089  RH  030%=      5-min Rain = 0
KLD1 111715Z 00015G20KT 08/M09 A3031 RMK A01 T00811089  RH  029%=      5-min Rain = 0
KLD1 111720Z 02016G22KT 08/M09 A303 RMK A01 T00841093  RH  028%=      5-min Rain = 0
KLD1 111725Z 03016G21KT 08/M09 A3031 RMK A01 T00831094  RH  028%=      5-min Rain = 0
KLD1 111730Z 02015G20KT 09/M09 A3031 RMK A01 T00861092  RH  028%=      5-min Rain = 0
KLD1 111735Z 02017KT 09/M09 A3031 RMK A01 T00881093  RH  027%=      5-min Rain = 0
KLD1 111740Z 00014G20KT 09/M10 A3031 RMK A01 T00871095  RH  027%=      5-min Rain = 0
KLD1 111745Z 02013KT 09/M09 A3031 RMK A01 T00901092  RH  027%=      5-min Rain = 0
KLD1 111750Z 00013G18KT 09/M09 A3031 RMK A01 T00891090  RH  028%=      5-min Rain = 0
KLD1 111755Z 01016G24KT 09/M09 A3031 RMK A01 T00901094  RH  026%=      5-min Rain = 0
KLD1 111800Z 02015KT 09/M09 A3031 RMK A01 T00941093  RH  026%=      5-min Rain = 0
KLD1 111805Z 01013G20KT 10/M09 A3031 RMK A01 T00971090  RH  026%=      5-min Rain = 0
KLD1 111810Z 00012G17KT 10/M09 A3031 RMK A01 T01001089  RH  026%=      5-min Rain = 0
KLD1 111815Z 01013G18KT 10/M09 A3031 RMK A01 T00991093  RH  025%=      5-min Rain = 0
KLD1 111820Z 00015G22KT 10/M10 A3031 RMK A01 T00951098  RH  025%=      5-min Rain = 0
KLD1 111825Z 01015KT 09/M10 A3031 RMK A01 T00941099  RH  025%=      5-min Rain = 0
KLD1 111830Z 01013G18KT 09/M10 A3032 RMK A01 T00941096  RH  025%=      5-min Rain = 0
KLD1 111835Z 02014G19KT 10/M10 A3031 RMK A01 T00971097  RH  025%=      5-min Rain = 0
KLD1 111840Z 02013KT 10/M10 A3031 RMK A01 T00981097  RH  025%=      5-min Rain = 0
KLD1 111845Z 03011KT 10/M10 A3031 RMK A01 T00991096  RH  024%=      5-min Rain = 0
KLD1 111850Z 02014G20KT 10/M10 A3031 RMK A01 T00971098  RH  025%=      5-min Rain = 0
KLD1 111855Z 01014KT 09/M10 A3031 RMK A01 T00941101  RH  024%=      5-min Rain = 0
KLD1 111900Z 36014KT 09/M10 A3031 RMK A01 T00941101  RH  024%=      5-min Rain = 0
KLD1 111905Z 00016G21KT 10/M11 A3031 RMK A01 T00971107  RH  023%=      5-min Rain = 0
KLD1 111910Z 01014KT 10/M11 A3031 RMK A01 T00991105  RH  023%=      5-min Rain = 0
KLD1 111915Z 02013KT 10/M10 A303 RMK A01 T01001103  RH  023%=      5-min Rain = 0
KLD1 111920Z 01013KT 10/M10 A303 RMK A01 T00981104  RH  023%=      5-min Rain = 0
KLD1 111925Z 00016G21KT 10/M11 A303 RMK A01 T00951106  RH  023%=      5-min Rain = 0
KLD1 111930Z 01012G17KT 09/M11 A303 RMK A01 T00931106  RH  024%=      5-min Rain = 0
KLD1 111935Z 02013KT 09/M11 A303 RMK A01 T00931108  RH  023%=      5-min Rain = 0
KLD1 111940Z 02012KT 09/M11 A303 RMK A01 T00931108  RH  023%=      5-min Rain = 0
KLD1 111945Z 01011KT 10/M11 A303 RMK A01 T00961105  RH  023%=      5-min Rain = 0
KLD1 111950Z 01012KT 10/M10 A303 RMK A01 T00991103  RH  023%=      5-min Rain = 0
KLD1 111955Z 02012KT 10/M10 A303 RMK A01 T01011103  RH  023%=      5-min Rain = 0
KLD1 112000Z 01010KT 10/M10 A303 RMK A01 T01021102  RH  023%=      5-min Rain = 0
KLD1 112005Z 01011KT 10/M10 A3029 RMK A01 T01021101  RH  023%=      5-min Rain = 0
KLD1 112010Z 02010KT 10/M10 A3029 RMK A01 T01011101  RH  023%=      5-min Rain = 0
KLD1 112015Z 00009KT 10/M10 A3029 RMK A01 T01031099  RH  023%=      5-min Rain = 0
KLD1 112020Z 00012G18KT 11/M10 A3028 RMK A01 T01091098  RH  023%=      5-min Rain = 0
KLD1 112025Z 01011KT 11/M10 A3028 RMK A01 T01121098  RH  022%=      5-min Rain = 0
KLD1 112030Z 02012G18KT 12/M09 A3028 RMK A01 T01151094  RH  022%=      5-min Rain = 0
KLD1 112035Z 01014G19KT 12/M09 A3027 RMK A01 T01171089  RH  023%=      5-min Rain = 0
KLD1 112040Z 02011G16KT 12/M09 A3027 RMK A01 T01181090  RH  023%=      5-min Rain = 0
KLD1 112045Z 01012G17KT 12/M10 A3027 RMK A01 T01201096  RH  021%=      5-min Rain = 0
KLD1 112050Z 01010KT 12/M10 A3027 RMK A01 T01191102  RH  021%=      5-min Rain = 0
KLD1 112055Z 03010G17KT 12/M10 A3027 RMK A01 T01211102  RH  020%=      5-min Rain = 0
KLD1 112100Z 02010KT 12/M10 A3027 RMK A01 T01211104  RH  020%=      5-min Rain = 0
KLD1 112105Z 01013G18KT 13/M11 A3027 RMK A01 T01271105  RH  019%=      5-min Rain = 0
KLD1 112110Z 01009G15KT 13/M11 A3027 RMK A01 T01261106  RH  019%=      5-min Rain = 0
KLD1 112115Z 34010KT 13/M11 A3027 RMK A01 T01251106  RH  019%=      5-min Rain = 0
KLD1 112120Z 02012KT 13/M11 A3026 RMK A01 T01261109  RH  019%=      5-min Rain = 0
KLD1 112125Z 01012G17KT 13/M11 A3026 RMK A01 T01261111  RH  018%=      5-min Rain = 0
KLD1 112130Z 01011G16KT 12/M11 A3026 RMK A01 T01231112  RH  018%=      5-min Rain = 0
KLD1 112135Z 00011G17KT 13/M11 A3026 RMK A01 T01251111  RH  018%=      5-min Rain = 0
KLD1 112140Z 02012KT 13/M11 A3026 RMK A01 T01271113  RH  018%=      5-min Rain = 0
KLD1 112145Z 01009G14KT 12/M11 A3026 RMK A01 T01231112  RH  018%=      5-min Rain = 0
KLD1 112150Z 00010KT 13/M11 A3025 RMK A01 T01251112  RH  018%=      5-min Rain = 0
KLD1 112155Z 01012G17KT 12/M11 A3026 RMK A01 T01241112  RH  018%=      5-min Rain = 0
KLD1 112200Z 00009KT 13/M11 A3026 RMK A01 T01261111  RH  018%=      5-min Rain = 0
KLD1 112205Z 01009G16KT 13/M11 A3025 RMK A01 T01281112  RH  018%=      5-min Rain = 0
KLD1 112210Z 01010G16KT 13/M11 A3025 RMK A01 T01311112  RH  017%=      5-min Rain = 0
KLD1 112215Z 02013KT 13/M11 A3025 RMK A01 T01341114  RH  017%=      5-min Rain = 0
KLD1 112220Z 02011G16KT 13/M11 A3025 RMK A01 T01311114  RH  017%=      5-min Rain = 0
KLD1 112225Z 02011G17KT 13/M11 A3025 RMK A01 T01341113  RH  017%=      5-min Rain = 0
KLD1 112230Z 03010G17KT 13/M11 A3025 RMK A01 T01321114  RH  017%=      5-min Rain = 0
KLD1 112235Z 02011KT 13/M11 A3025 RMK A01 T01281114  RH  018%=      5-min Rain = 0
KLD1 112240Z 02010G15KT 13/M11 A3025 RMK A01 T01271114  RH  018%=      5-min Rain = 0
KLD1 112245Z 03012G17KT 13/M12 A3025 RMK A01 T01291115  RH  017%=      5-min Rain = 0
KLD1 112250Z 02010KT 13/M12 A3025 RMK A01 T01271116  RH  017%=      5-min Rain = 0
KLD1 112255Z 03011KT 13/M12 A3025 RMK A01 T01261117  RH  017%=      5-min Rain = 0
KLD1 112300Z 01014KT 13/M12 A3025 RMK A01 T01261117  RH  017%=      5-min Rain = 0
KLD1 112305Z 02013KT 13/M12 A3025 RMK A01 T01261118  RH  017%=      5-min Rain = 0
KLD1 112310Z 02012KT 13/M12 A3025 RMK A01 T01261119  RH  017%=      5-min Rain = 0
KLD1 112315Z 03011KT 12/M12 A3026 RMK A01 T01241120  RH  017%=      5-min Rain = 0
KLD1 112320Z 02012G18KT 12/M12 A3026 RMK A01 T01241119  RH  017%=      5-min Rain = 0
KLD1 112325Z 01013G18KT 12/M12 A3026 RMK A01 T01221119  RH  018%=      5-min Rain = 0
KLD1 112330Z 02012KT 12/M12 A3026 RMK A01 T01211119  RH  018%=      5-min Rain = 0
KLD1 112335Z 02012G17KT 12/M12 A3026 RMK A01 T01211118  RH  018%=      5-min Rain = 0
KLD1 112340Z 02011KT 12/M12 A3026 RMK A01 T01201119  RH  018%=      5-min Rain = 0
KLD1 112345Z 02011KT 12/M12 A3026 RMK A01 T01181120  RH  018%=      5-min Rain = 0
KLD1 112350Z 01012G17KT 12/M12 A3026 RMK A01 T01161120  RH  018%=      5-min Rain = 0
KLD1 112355Z 02012KT 12/M12 A3026 RMK A01 T01151120  RH  018%=      5-min Rain = 0
KLD1 120000Z 02011KT 11/M12 A3026 RMK A01 T01141121  RH  018%=      5-min Rain = 0
KLD1 120005Z 02010KT 11/M12 A3027 RMK A01 T01141121  RH  018%=      5-min Rain = 0
KLD1 120010Z 01010KT 12/M12 A3027 RMK A01 T01151121  RH  018%=      5-min Rain = 0
KLD1 120015Z 01008KT 11/M12 A3027 RMK A01 T01141121  RH  018%=      5-min Rain = 0
KLD1 120020Z 01010KT 11/M12 A3027 RMK A01 T01131122  RH  018%=      5-min Rain = 0
KLD1 120025Z 01008KT 11/M12 A3027 RMK A01 T01121122  RH  018%=      5-min Rain = 0
KLD1 120030Z 01009KT 11/M12 A3028 RMK A01 T01091122  RH  019%=      5-min Rain = 0
KLD1 120035Z 02008KT 11/M12 A3028 RMK A01 T01081123  RH  019%=      5-min Rain = 0
KLD1 120040Z 01006KT 11/M12 A3028 RMK A01 T01051123  RH  019%=      5-min Rain = 0
KLD1 120045Z 00006KT 10/M12 A3029 RMK A01 T00991124  RH  020%=      5-min Rain = 0
KLD1 120050Z 00006KT 09/M12 A3029 RMK A01 T00941124  RH  020%=      5-min Rain = 0
KLD1 120055Z 00005KT 09/M13 A3029 RMK A01 T00901126  RH  021%=      5-min Rain = 0
KLD1 120100Z 00005KT 09/M13 A3029 RMK A01 T00881126  RH  021%=      5-min Rain = 0
KLD1 120105Z 00005KT 09/M13 A3029 RMK A01 T00851127  RH  021%=      5-min Rain = 0
KLD1 120110Z 01006KT 08/M13 A3029 RMK A01 T00821128  RH  021%=      5-min Rain = 0
KLD1 120115Z 00006KT 08/M13 A3029 RMK A01 T00801129  RH  022%=      5-min Rain = 0
KLD1 120120Z 00007KT 08/M13 A303 RMK A01 T00761129  RH  022%=      5-min Rain = 0
KLD1 120125Z 01006KT 07/M13 A303 RMK A01 T00721129  RH  023%=      5-min Rain = 0
KLD1 120130Z 01006KT 07/M13 A303 RMK A01 T00701130  RH  023%=      5-min Rain = 0
KLD1 120135Z 01007KT 07/M13 A303 RMK A01 T00681130  RH  023%=      5-min Rain = 0
KLD1 120140Z 02007KT 07/M13 A303 RMK A01 T00661128  RH  024%=      5-min Rain = 0
KLD1 120145Z 02007KT 06/M13 A303 RMK A01 T00641129  RH  024%=      5-min Rain = 0
KLD1 120150Z 02007KT 06/M13 A3031 RMK A01 T00621128  RH  025%=      5-min Rain = 0
KLD1 120155Z 02007KT 06/M13 A3031 RMK A01 T00591128  RH  025%=      5-min Rain = 0
KLD1 120200Z 02008KT 06/M13 A3031 RMK A01 T00571126  RH  026%=      5-min Rain = 0
KLD1 120205Z 02008KT 05/M12 A3031 RMK A01 T00541124  RH  027%=      5-min Rain = 0
KLD1 120210Z 02007KT 05/M12 A3031 RMK A01 T00531123  RH  027%=      5-min Rain = 0
KLD1 120215Z 02006KT 05/M12 A3031 RMK A01 T00531124  RH  027%=      5-min Rain = 0
KLD1 120220Z 02006KT 05/M13 A3031 RMK A01 T00511126  RH  027%=      5-min Rain = 0
KLD1 120225Z 02006KT 05/M13 A3032 RMK A01 T00501129  RH  026%=      5-min Rain = 0
KLD1 120230Z 01005KT 05/M13 A3032 RMK A01 T00511130  RH  026%=      5-min Rain = 0
KLD1 120235Z 01005KT 05/M13 A3032 RMK A01 T00541130  RH  026%=      5-min Rain = 0
KLD1 120240Z 01005KT 05/M13 A3032 RMK A01 T00541131  RH  025%=      5-min Rain = 0
KLD1 120245Z 01007KT 05/M13 A3032 RMK A01 T00531130  RH  026%=      5-min Rain = 0
KLD1 120250Z 02009KT 06/M13 A3033 RMK A01 T00571127  RH  026%=      5-min Rain = 0
KLD1 120255Z 02008KT 07/M13 A3033 RMK A01 T00651127  RH  024%=      5-min Rain = 0
KLD1 120300Z 02007KT 07/M13 A3033 RMK A01 T00671129  RH  024%=      5-min Rain = 0
KLD1 120305Z 01007KT 07/M13 A3033 RMK A01 T00651131  RH  024%=      5-min Rain = 0
KLD1 120310Z 02007KT 06/M13 A3033 RMK A01 T00591133  RH  024%=      5-min Rain = 0
KLD1 120315Z 02007KT 06/M13 A3033 RMK A01 T00561133  RH  025%=      5-min Rain = 0
KLD1 120320Z 01007KT 05/M13 A3034 RMK A01 T00531134  RH  025%=      5-min Rain = 0
KLD1 120325Z 01007KT 05/M14 A3034 RMK A01 T00491136  RH  025%=      5-min Rain = 0
KLD1 120330Z 01007KT 05/M14 A3034 RMK A01 T00451138  RH  025%=      5-min Rain = 0
KLD1 120335Z 01007KT 04/M14 A3034 RMK A01 T00431139  RH  025%=      5-min Rain = 0
KLD1 120340Z 02007KT 04/M14 A3034 RMK A01 T00431140  RH  026%=      5-min Rain = 0
KLD1 120345Z 02006KT 04/M14 A3034 RMK A01 T00421140  RH  026%=      5-min Rain = 0
KLD1 120350Z 02007KT 04/M14 A3034 RMK A01 T00421139  RH  026%=      5-min Rain = 0
KLD1 120355Z 02006KT 04/M14 A3034 RMK A01 T00421138  RH  026%=      5-min Rain = 0
KLD1 120400Z 02006KT 04/M14 A3034 RMK A01 T00431137  RH  026%=      5-min Rain = 0
KLD1 120405Z 02007KT 04/M14 A3034 RMK A01 T00431135  RH  026%=      5-min Rain = 0
KLD1 120410Z 02006KT 04/M13 A3034 RMK A01 T00431133  RH  027%=      5-min Rain = 0
KLD1 120415Z 02006KT 04/M13 A3034 RMK A01 T00441133  RH  027%=      5-min Rain = 0
KLD1 120420Z 02006KT 05/M13 A3034 RMK A01 T00451133  RH  027%=      5-min Rain = 0
KLD1 120425Z 02006KT 04/M13 A3034 RMK A01 T00441132  RH  027%=      5-min Rain = 0
KLD1 120430Z 02005KT 04/M13 A3034 RMK A01 T00411132  RH  027%=      5-min Rain = 0
KLD1 120435Z 02005KT 04/M13 A3034 RMK A01 T00401131  RH  028%=      5-min Rain = 0
KLD1 120440Z 02004KT 04/M13 A3035 RMK A01 T00391131  RH  028%=      5-min Rain = 0
KLD1 120445Z 02004KT 04/M13 A3035 RMK A01 T00411130  RH  028%=      5-min Rain = 0
KLD1 120450Z 02005KT 05/M13 A3035 RMK A01 T00451132  RH  027%=      5-min Rain = 0
KLD1 120455Z 02005KT 05/M14 A3035 RMK A01 T00451135  RH  026%=      5-min Rain = 0

Page generated in 0.0209 seconds.